CheckWX is a tool to help pilots better visualize weather data.  It is not intended as a substitute for an official pre-flight weather briefing.

22:15:07 UTC

0F2 METAR
Bowie Municipal Airport
Bowie, Texas, USA
Current

20 mins ago

K0F2 252155Z AUTO 33012KT 10SM CLR 19/08 A3022 RMK AO2 T01940084
Observed
Mar-25 @ 21:55 UTC
Wind
  • 330° at 12 KTS
Visibility
10 SM
Flight Rules
VFR
Cloud Levels
  • Clear skies
Temperature
19°C / 66°F
Dewpoint
C / 46°F
Humidity
49%
Altimeter
30.22" Hg
Pressure
1023.42 hPa
Previous

40 mins ago

K0F2 252135Z AUTO 33014G17KT 10SM CLR 19/08 A3022 RMK AO2 T01920084
Observed
Mar-25 @ 21:35 UTC
Wind
  • 330° at 14 KTS
  • Gusting to 17 KTS
Visibility
10 SM
Flight Rules
VFR
Cloud Levels
  • Clear skies
Temperature
19°C / 66°F
Dewpoint
C / 46°F
Humidity
49%
Altimeter
30.22" Hg
Pressure
1023.42 hPa
Previous

60 mins ago

K0F2 252115Z AUTO 36009G14KT 10SM CLR 20/08 A3022 RMK AO2 T01960082
Observed
Mar-25 @ 21:15 UTC
Wind
  • 360° at 9 KTS
  • Gusting to 14 KTS
Visibility
10 SM
Flight Rules
VFR
Cloud Levels
  • Clear skies
Temperature
20°C / 68°F
Dewpoint
C / 46°F
Humidity
46%
Altimeter
30.22" Hg
Pressure
1023.42 hPa